Аэропорт: Храброво. Калининград

ICAO: UMKK

METAR:
2021-07-28 13:00:00
UMKK 281300Z 35003MPS 320V060 9999 SCT041 26/20 Q1010 R24/95D NOSIG RMK QFE756/1008
METAR:
2021-07-28 10:52:00
TAF UMKK 281052Z 2812/2912 35003G08MPS 9999 SCT030CB TEMPO 2812/2814 29006G11MPS BECMG 2814/2815 VRB01MPS TEMPO 2815/2824 VRB13MPS 1400 TSRA SQ BKN016CB TEMPO 2900/2905 0700 PRFG BECMG 2905/2907 25006G13MPS